sensor_id;sensor_type;location;lat;lon;timestamp;pressure;altitude;pressure_sealevel;temperature;humidity
53889;BME280;41337;51.400;-2.342;2023-07-16T00:01:04;100100.97;;;14.41;91.27
53889;BME280;41337;51.400;-2.342;2023-07-16T00:06:05;100108.69;;;14.42;90.82
53889;BME280;41337;51.400;-2.342;2023-07-16T00:11:06;100106.69;;;14.38;91.10
53889;BME280;41337;51.400;-2.342;2023-07-16T00:16:07;100110.94;;;14.32;89.99
53889;BME280;41337;51.400;-2.342;2023-07-16T00:21:08;100118.69;;;14.27;90.47
53889;BME280;41337;51.400;-2.342;2023-07-16T00:26:08;100119.72;;;14.19;90.67
53889;BME280;41337;51.400;-2.342;2023-07-16T00:31:10;100129.28;;;14.21;88.88
53889;BME280;41337;51.400;-2.342;2023-07-16T00:36:11;100125.03;;;14.06;89.96
53889;BME280;41337;51.400;-2.342;2023-07-16T00:41:13;100122.81;;;14.03;88.99
53889;BME280;41337;51.400;-2.342;2023-07-16T00:46:15;100132.38;;;13.98;90.05
53889;BME280;41337;51.400;-2.342;2023-07-16T00:51:17;100144.56;;;13.92;89.80
53889;BME280;41337;51.400;-2.342;2023-07-16T00:56:19;100149.47;;;13.82;89.82
53889;BME280;41337;51.400;-2.342;2023-07-16T01:01:20;100148.06;;;13.73;89.87
53889;BME280;41337;51.400;-2.342;2023-07-16T01:06:35;100145.22;;;13.61;90.66
53889;BME280;41337;51.400;-2.342;2023-07-16T01:11:38;100150.50;;;13.61;90.70
53889;BME280;41337;51.400;-2.342;2023-07-16T01:16:41;100160.66;;;13.64;90.17
53889;BME280;41337;51.400;-2.342;2023-07-16T01:32:07;100166.38;;;13.61;89.45
53889;BME280;41337;51.400;-2.342;2023-07-16T01:37:12;100170.59;;;13.62;90.04
53889;BME280;41337;51.400;-2.342;2023-07-16T01:42:13;100165.31;;;13.56;88.39
53889;BME280;41337;51.400;-2.342;2023-07-16T01:47:45;100175.09;;;13.49;90.30
53889;BME280;41337;51.400;-2.342;2023-07-16T01:52:49;100165.13;;;13.51;89.14
53889;BME280;41337;51.400;-2.342;2023-07-16T01:57:50;100180.16;;;13.44;88.69
53889;BME280;41337;51.400;-2.342;2023-07-16T02:02:51;100179.13;;;13.38;89.47
53889;BME280;41337;51.400;-2.342;2023-07-16T02:07:52;100187.69;;;13.40;89.49
53889;BME280;41337;51.400;-2.342;2023-07-16T02:12:53;100198.25;;;13.40;89.42
53889;BME280;41337;51.400;-2.342;2023-07-16T02:17:54;100197.22;;;13.35;89.13
53889;BME280;41337;51.400;-2.342;2023-07-16T02:22:54;100203.09;;;13.30;89.13
53889;BME280;41337;51.400;-2.342;2023-07-16T02:27:55;100199.84;;;13.35;88.23
53889;BME280;41337;51.400;-2.342;2023-07-16T02:32:56;100196.81;;;13.31;87.60
53889;BME280;41337;51.400;-2.342;2023-07-16T02:37:57;100208.97;;;13.25;87.49
53889;BME280;41337;51.400;-2.342;2023-07-16T02:42:58;100202.66;;;13.20;87.68
53889;BME280;41337;51.400;-2.342;2023-07-16T02:47:58;100210.97;;;13.10;86.86
53889;BME280;41337;51.400;-2.342;2023-07-16T02:52:59;100222.44;;;12.96;88.68
53889;BME280;41337;51.400;-2.342;2023-07-16T02:58:00;100224.25;;;12.89;88.28
53889;BME280;41337;51.400;-2.342;2023-07-16T03:03:05;100234.41;;;12.86;88.51
53889;BME280;41337;51.400;-2.342;2023-07-16T03:08:07;100237.66;;;12.88;88.09
53889;BME280;41337;51.400;-2.342;2023-07-16T03:13:11;100232.53;;;12.79;88.77
53889;BME280;41337;51.400;-2.342;2023-07-16T03:18:12;100248.38;;;12.79;88.93
53889;BME280;41337;51.400;-2.342;2023-07-16T03:23:13;100250.66;;;12.89;87.68
53889;BME280;41337;51.400;-2.342;2023-07-16T03:28:14;100254.06;;;12.83;87.78
53889;BME280;41337;51.400;-2.342;2023-07-16T03:33:15;100264.03;;;12.81;88.23
53889;BME280;41337;51.400;-2.342;2023-07-16T03:38:16;100276.41;;;12.80;88.34
53889;BME280;41337;51.400;-2.342;2023-07-16T03:43:17;100283.28;;;12.75;88.75
53889;BME280;41337;51.400;-2.342;2023-07-16T03:48:18;100285.31;;;12.73;87.73
53889;BME280;41337;51.400;-2.342;2023-07-16T03:53:19;100285.31;;;12.73;87.32
53889;BME280;41337;51.400;-2.342;2023-07-16T03:58:20;100287.94;;;12.73;88.46
53889;BME280;41337;51.400;-2.342;2023-07-16T04:03:21;100290.59;;;12.73;87.12
53889;BME280;41337;51.400;-2.342;2023-07-16T04:08:22;100291.16;;;12.68;88.04
53889;BME280;41337;51.400;-2.342;2023-07-16T04:13:23;100290.34;;;12.68;87.12
53889;BME280;41337;51.400;-2.342;2023-07-16T04:18:24;100299.09;;;12.68;87.93
53889;BME280;41337;51.400;-2.342;2023-07-16T04:23:25;100303.16;;;12.71;86.95
53889;BME280;41337;51.400;-2.342;2023-07-16T04:28:26;100308.63;;;12.69;87.43
53889;BME280;41337;51.400;-2.342;2023-07-16T04:33:27;100306.44;;;12.73;87.64
53889;BME280;41337;51.400;-2.342;2023-07-16T04:38:28;100328.72;;;12.70;87.32
53889;BME280;41337;51.400;-2.342;2023-07-16T04:43:28;100325.53;;;12.75;87.22
53889;BME280;41337;51.400;-2.342;2023-07-16T04:48:29;100334.88;;;12.77;86.36
53889;BME280;41337;51.400;-2.342;2023-07-16T04:53:30;100344.66;;;12.83;85.86
53889;BME280;41337;51.400;-2.342;2023-07-16T04:58:32;100349.13;;;12.83;86.92
53889;BME280;41337;51.400;-2.342;2023-07-16T05:03:35;100356.44;;;12.81;86.55
53889;BME280;41337;51.400;-2.342;2023-07-16T05:08:36;100364.66;;;12.93;86.71
53889;BME280;41337;51.400;-2.342;2023-07-16T05:13:37;100378.28;;;12.96;86.19
53889;BME280;41337;51.400;-2.342;2023-07-16T05:18:38;100381.78;;;13.03;87.19
53889;BME280;41337;51.400;-2.342;2023-07-16T05:23:39;100390.34;;;13.05;87.60
53889;BME280;41337;51.400;-2.342;2023-07-16T05:28:39;100398.81;;;12.94;88.40
53889;BME280;41337;51.400;-2.342;2023-07-16T05:33:40;100404.72;;;13.03;87.15
53889;BME280;41337;51.400;-2.342;2023-07-16T05:38:41;100398.44;;;13.04;87.97
53889;BME280;41337;51.400;-2.342;2023-07-16T05:43:42;100406.63;;;13.09;87.95
53889;BME280;41337;51.400;-2.342;2023-07-16T05:48:42;100427.22;;;13.20;87.80
53889;BME280;41337;51.400;-2.342;2023-07-16T05:53:43;100424.09;;;13.10;88.36
53889;BME280;41337;51.400;-2.342;2023-07-16T05:58:44;100429.31;;;13.03;89.65
53889;BME280;41337;51.400;-2.342;2023-07-16T06:03:45;100435.25;;;13.05;89.57
53889;BME280;41337;51.400;-2.342;2023-07-16T06:08:46;100437.13;;;13.11;88.02
53889;BME280;41337;51.400;-2.342;2023-07-16T06:13:46;100433.50;;;13.12;89.04
53889;BME280;41337;51.400;-2.342;2023-07-16T06:18:47;100454.44;;;13.14;87.29
53889;BME280;41337;51.400;-2.342;2023-07-16T06:23:48;100452.72;;;13.27;86.50
53889;BME280;41337;51.400;-2.342;2023-07-16T06:28:49;100470.50;;;13.40;87.65
53889;BME280;41337;51.400;-2.342;2023-07-16T06:33:50;100479.19;;;13.62;86.11
53889;BME280;41337;51.400;-2.342;2023-07-16T06:38:51;100489.81;;;13.75;84.15
53889;BME280;41337;51.400;-2.342;2023-07-16T06:43:54;100500.69;;;13.93;84.49
53889;BME280;41337;51.400;-2.342;2023-07-16T06:48:55;100510.75;;;14.11;84.27
53889;BME280;41337;51.400;-2.342;2023-07-16T06:53:55;100517.00;;;14.38;83.45
53889;BME280;41337;51.400;-2.342;2023-07-16T06:58:56;100517.00;;;14.38;83.20
53889;BME280;41337;51.400;-2.342;2023-07-16T07:03:57;100526.41;;;14.53;80.60
53889;BME280;41337;51.400;-2.342;2023-07-16T07:08:58;100539.06;;;14.58;82.04
53889;BME280;41337;51.400;-2.342;2023-07-16T07:13:59;100545.44;;;14.83;80.36
53889;BME280;41337;51.400;-2.342;2023-07-16T07:19:00;100549.50;;;14.86;79.49
53889;BME280;41337;51.400;-2.342;2023-07-16T07:24:00;100560.53;;;14.89;79.38
53889;BME280;41337;51.400;-2.342;2023-07-16T07:29:01;100575.00;;;14.87;78.36
53889;BME280;41337;51.400;-2.342;2023-07-16T07:34:03;100581.88;;;14.75;80.03
53889;BME280;41337;51.400;-2.342;2023-07-16T07:39:03;100572.13;;;14.75;79.85
53889;BME280;41337;51.400;-2.342;2023-07-16T07:44:04;100574.75;;;14.75;80.93
53889;BME280;41337;51.400;-2.342;2023-07-16T07:49:05;100596.41;;;14.98;80.10
53889;BME280;41337;51.400;-2.342;2023-07-16T07:54:06;100597.69;;;15.22;78.94
53889;BME280;41337;51.400;-2.342;2023-07-16T07:59:07;100593.81;;;15.25;77.57
53889;BME280;41337;51.400;-2.342;2023-07-16T08:04:08;100601.63;;;15.52;75.13
53889;BME280;41337;51.400;-2.342;2023-07-16T08:09:09;100593.66;;;15.52;75.69
53889;BME280;41337;51.400;-2.342;2023-07-16T08:14:09;100601.00;;;15.57;76.22
53889;BME280;41337;51.400;-2.342;2023-07-16T08:19:10;100610.78;;;15.63;77.20
53889;BME280;41337;51.400;-2.342;2023-07-16T08:24:11;100609.97;;;15.82;74.66
53889;BME280;41337;51.400;-2.342;2023-07-16T08:29:12;100614.06;;;15.65;74.18
53889;BME280;41337;51.400;-2.342;2023-07-16T08:34:15;100621.81;;;15.86;75.80
53889;BME280;41337;51.400;-2.342;2023-07-16T08:39:16;100635.28;;;15.85;74.20
53889;BME280;41337;51.400;-2.342;2023-07-16T08:44:20;100642.19;;;16.06;74.02
53889;BME280;41337;51.400;-2.342;2023-07-16T08:49:22;100628.88;;;16.32;72.24
53889;BME280;41337;51.400;-2.342;2023-07-16T08:54:23;100647.41;;;16.58;72.76
53889;BME280;41337;51.400;-2.342;2023-07-16T08:59:27;100647.38;;;16.71;73.18
53889;BME280;41337;51.400;-2.342;2023-07-16T09:04:28;100648.44;;;17.02;69.88
53889;BME280;41337;51.400;-2.342;2023-07-16T09:09:30;100641.38;;;17.20;69.83
53889;BME280;41337;51.400;-2.342;2023-07-16T09:14:31;100645.44;;;17.23;69.05
53889;BME280;41337;51.400;-2.342;2023-07-16T09:19:32;100662.22;;;17.55;68.30
53889;BME280;41337;51.400;-2.342;2023-07-16T09:24:33;100657.03;;;17.66;67.92
53889;BME280;41337;51.400;-2.342;2023-07-16T09:29:38;100661.50;;;17.41;66.76
53889;BME280;41337;51.400;-2.342;2023-07-16T09:34:39;100651.56;;;17.55;66.16
53889;BME280;41337;51.400;-2.342;2023-07-16T09:39:41;100661.88;;;17.76;64.53
53889;BME280;41337;51.400;-2.342;2023-07-16T09:44:44;100669.03;;;17.44;66.10
53889;BME280;41337;51.400;-2.342;2023-07-16T09:49:45;100673.06;;;17.60;65.14
53889;BME280;41337;51.400;-2.342;2023-07-16T09:54:46;100689.63;;;17.87;65.89
53889;BME280;41337;51.400;-2.342;2023-07-16T09:59:49;100688.53;;;17.38;65.24
53889;BME280;41337;51.400;-2.342;2023-07-16T10:04:52;100710.97;;;17.49;66.38
53889;BME280;41337;51.400;-2.342;2023-07-16T10:09:57;100700.56;;;17.41;66.70
53889;BME280;41337;51.400;-2.342;2023-07-16T10:14:58;100709.19;;;17.74;65.81
53889;BME280;41337;51.400;-2.342;2023-07-16T10:20:06;100722.03;;;18.08;65.10
53889;BME280;41337;51.400;-2.342;2023-07-16T10:30:19;100727.38;;;17.46;66.84
53889;BME280;41337;51.400;-2.342;2023-07-16T10:35:21;100727.41;;;17.01;68.48
53889;BME280;41337;51.400;-2.342;2023-07-16T10:40:22;100738.38;;;17.49;68.72
53889;BME280;41337;51.400;-2.342;2023-07-16T10:45:23;100722.25;;;18.07;64.29
53889;BME280;41337;51.400;-2.342;2023-07-16T10:50:24;100733.44;;;18.40;62.34
53889;BME280;41337;51.400;-2.342;2023-07-16T10:55:28;100729.75;;;18.41;62.46
53889;BME280;41337;51.400;-2.342;2023-07-16T11:00:29;100726.53;;;18.57;59.97
53889;BME280;41337;51.400;-2.342;2023-07-16T11:05:30;100733.19;;;18.66;63.12
53889;BME280;41337;51.400;-2.342;2023-07-16T11:10:31;100736.50;;;19.16;61.17
53889;BME280;41337;51.400;-2.342;2023-07-16T11:15:33;100750.06;;;18.97;61.17
53889;BME280;41337;51.400;-2.342;2023-07-16T11:20:34;100744.50;;;18.98;61.67
53889;BME280;41337;51.400;-2.342;2023-07-16T11:25:34;100735.91;;;19.14;58.93
53889;BME280;41337;51.400;-2.342;2023-07-16T11:30:35;100746.03;;;19.24;59.16
53889;BME280;41337;51.400;-2.342;2023-07-16T11:35:37;100745.94;;;19.01;58.81
53889;BME280;41337;51.400;-2.342;2023-07-16T11:40:38;100763.53;;;19.02;60.45
53889;BME280;41337;51.400;-2.342;2023-07-16T11:45:39;100771.53;;;19.20;60.97
53889;BME280;41337;51.400;-2.342;2023-07-16T11:50:40;100768.78;;;19.45;59.77
53889;BME280;41337;51.400;-2.342;2023-07-16T11:55:41;100774.66;;;19.17;56.53
53889;BME280;41337;51.400;-2.342;2023-07-16T12:00:42;100766.41;;;19.37;55.12
53889;BME280;41337;51.400;-2.342;2023-07-16T12:05:43;100757.78;;;19.05;58.11
53889;BME280;41337;51.400;-2.342;2023-07-16T12:10:44;100759.38;;;19.06;58.91
53889;BME280;41337;51.400;-2.342;2023-07-16T12:15:44;100784.13;;;18.77;61.16
53889;BME280;41337;51.400;-2.342;2023-07-16T12:20:45;100774.59;;;18.19;66.55
53889;BME280;41337;51.400;-2.342;2023-07-16T12:25:46;100777.00;;;18.27;63.65
53889;BME280;41337;51.400;-2.342;2023-07-16T12:30:48;100784.91;;;18.09;65.97
53889;BME280;41337;51.400;-2.342;2023-07-16T12:35:48;100804.56;;;18.15;69.47
53889;BME280;41337;51.400;-2.342;2023-07-16T12:40:49;100807.88;;;18.04;70.78
53889;BME280;41337;51.400;-2.342;2023-07-16T12:45:50;100812.28;;;17.60;72.10
53889;BME280;41337;51.400;-2.342;2023-07-16T12:50:51;100833.38;;;16.71;76.52
53889;BME280;41337;51.400;-2.342;2023-07-16T12:55:52;100828.84;;;15.99;78.27
53889;BME280;41337;51.400;-2.342;2023-07-16T13:00:53;100831.16;;;15.55;81.06
53889;BME280;41337;51.400;-2.342;2023-07-16T13:05:54;100838.63;;;15.45;81.63
53889;BME280;41337;51.400;-2.342;2023-07-16T13:10:55;100836.28;;;15.57;81.28
53889;BME280;41337;51.400;-2.342;2023-07-16T13:15:56;100842.91;;;15.93;83.73
53889;BME280;41337;51.400;-2.342;2023-07-16T13:20:57;100832.13;;;16.41;86.32
53889;BME280;41337;51.400;-2.342;2023-07-16T13:25:58;100839.72;;;17.48;87.17
53889;BME280;41337;51.400;-2.342;2023-07-16T13:30:59;100845.41;;;18.02;84.60
53889;BME280;41337;51.400;-2.342;2023-07-16T13:36:00;100830.66;;;18.81;80.04
53889;BME280;41337;51.400;-2.342;2023-07-16T13:41:03;100838.41;;;19.25;79.62
53889;BME280;41337;51.400;-2.342;2023-07-16T13:46:04;100830.78;;;18.67;70.94
53889;BME280;41337;51.400;-2.342;2023-07-16T13:51:05;100830.09;;;18.47;73.25
53889;BME280;41337;51.400;-2.342;2023-07-16T13:56:06;100826.78;;;18.27;68.44
53889;BME280;41337;51.400;-2.342;2023-07-16T14:01:07;100829.72;;;18.19;71.67
53889;BME280;41337;51.400;-2.342;2023-07-16T14:06:07;100827.00;;;18.57;70.21
53889;BME280;41337;51.400;-2.342;2023-07-16T14:11:08;100831.19;;;18.71;73.69
53889;BME280;41337;51.400;-2.342;2023-07-16T14:16:09;100839.19;;;18.15;67.88
53889;BME280;41337;51.400;-2.342;2023-07-16T14:21:10;100835.84;;;17.95;68.52
53889;BME280;41337;51.400;-2.342;2023-07-16T14:26:11;100886.06;;;17.78;72.52
53889;BME280;41337;51.400;-2.342;2023-07-16T14:31:12;100875.50;;;16.74;80.42
53889;BME280;41337;51.400;-2.342;2023-07-16T14:36:13;100869.69;;;16.18;77.47
53889;BME280;41337;51.400;-2.342;2023-07-16T14:41:14;100867.84;;;16.06;84.95
53889;BME280;41337;51.400;-2.342;2023-07-16T14:46:15;100859.72;;;16.40;85.10
53889;BME280;41337;51.400;-2.342;2023-07-16T14:51:17;100859.53;;;16.74;88.17
53889;BME280;41337;51.400;-2.342;2023-07-16T14:56:18;100865.78;;;17.84;83.95
53889;BME280;41337;51.400;-2.342;2023-07-16T15:01:19;100862.78;;;18.05;83.42
53889;BME280;41337;51.400;-2.342;2023-07-16T15:06:20;100868.78;;;18.32;78.03
53889;BME280;41337;51.400;-2.342;2023-07-16T15:11:21;100861.69;;;18.19;74.04
53889;BME280;41337;51.400;-2.342;2023-07-16T15:16:22;100866.84;;;18.70;77.26
53889;BME280;41337;51.400;-2.342;2023-07-16T15:21:23;100864.00;;;19.51;70.55
53889;BME280;41337;51.400;-2.342;2023-07-16T15:26:24;100857.38;;;18.18;74.73
53889;BME280;41337;51.400;-2.342;2023-07-16T15:31:24;100856.25;;;18.01;70.82
53889;BME280;41337;51.400;-2.342;2023-07-16T15:36:29;100864.63;;;17.73;72.73
53889;BME280;41337;51.400;-2.342;2023-07-16T15:41:30;100863.75;;;17.86;76.04
53889;BME280;41337;51.400;-2.342;2023-07-16T15:46:31;100858.25;;;18.12;70.95
53889;BME280;41337;51.400;-2.342;2023-07-16T15:51:32;100869.00;;;17.41;70.74
53889;BME280;41337;51.400;-2.342;2023-07-16T15:56:36;100863.38;;;16.98;73.59
53889;BME280;41337;51.400;-2.342;2023-07-16T16:01:36;100850.31;;;16.97;73.90
53889;BME280;41337;51.400;-2.342;2023-07-16T16:06:37;100842.50;;;17.02;75.11
53889;BME280;41337;51.400;-2.342;2023-07-16T16:11:38;100854.09;;;17.33;77.24
53889;BME280;41337;51.400;-2.342;2023-07-16T16:16:39;100866.03;;;17.75;77.11
53889;BME280;41337;51.400;-2.342;2023-07-16T16:21:40;100881.03;;;17.63;74.42
53889;BME280;41337;51.400;-2.342;2023-07-16T16:26:41;100878.63;;;17.35;75.26
53889;BME280;41337;51.400;-2.342;2023-07-16T16:31:42;100883.63;;;16.99;76.12
53889;BME280;41337;51.400;-2.342;2023-07-16T16:36:43;100892.84;;;16.90;78.86
53889;BME280;41337;51.400;-2.342;2023-07-16T16:41:44;100903.66;;;16.56;76.36
53889;BME280;41337;51.400;-2.342;2023-07-16T16:46:46;100908.66;;;16.05;81.27
53889;BME280;41337;51.400;-2.342;2023-07-16T16:51:48;100894.53;;;15.84;85.44
53889;BME280;41337;51.400;-2.342;2023-07-16T16:56:49;100896.34;;;15.84;85.36
53889;BME280;41337;51.400;-2.342;2023-07-16T17:01:50;100891.50;;;16.00;81.55
53889;BME280;41337;51.400;-2.342;2023-07-16T17:06:54;100887.69;;;16.16;85.22
53889;BME280;41337;51.400;-2.342;2023-07-16T17:11:58;100891.66;;;16.66;81.10
53889;BME280;41337;51.400;-2.342;2023-07-16T17:16:59;100892.63;;;16.85;82.56
53889;BME280;41337;51.400;-2.342;2023-07-16T17:21:59;100902.22;;;17.25;81.10
53889;BME280;41337;51.400;-2.342;2023-07-16T17:27:00;100897.25;;;17.42;77.55
53889;BME280;41337;51.400;-2.342;2023-07-16T17:32:01;100898.47;;;17.59;77.93
53889;BME280;41337;51.400;-2.342;2023-07-16T17:37:04;100906.28;;;17.28;75.43
53889;BME280;41337;51.400;-2.342;2023-07-16T17:42:05;100906.72;;;17.12;74.77
53889;BME280;41337;51.400;-2.342;2023-07-16T17:47:06;100911.44;;;17.03;77.41
53889;BME280;41337;51.400;-2.342;2023-07-16T17:52:07;100914.75;;;16.92;77.17
53889;BME280;41337;51.400;-2.342;2023-07-16T17:57:08;100910.59;;;17.16;74.22
53889;BME280;41337;51.400;-2.342;2023-07-16T18:02:09;100915.00;;;17.68;72.00
53889;BME280;41337;51.400;-2.342;2023-07-16T18:07:10;100914.63;;;17.64;70.22
53889;BME280;41337;51.400;-2.342;2023-07-16T18:12:11;100915.25;;;17.40;74.92
53889;BME280;41337;51.400;-2.342;2023-07-16T18:17:12;100914.53;;;16.87;76.22
53889;BME280;41337;51.400;-2.342;2023-07-16T18:22:13;100925.09;;;16.28;80.07
53889;BME280;41337;51.400;-2.342;2023-07-16T18:27:14;100918.00;;;15.46;82.12
53889;BME280;41337;51.400;-2.342;2023-07-16T18:32:15;100939.84;;;15.14;85.75
53889;BME280;41337;51.400;-2.342;2023-07-16T18:37:16;100934.91;;;15.11;88.28
53889;BME280;41337;51.400;-2.342;2023-07-16T18:42:21;100947.34;;;15.45;88.49
53889;BME280;41337;51.400;-2.342;2023-07-16T18:47:27;100951.59;;;15.61;86.85
53889;BME280;41337;51.400;-2.342;2023-07-16T18:52:28;100958.22;;;15.84;88.27
53889;BME280;41337;51.400;-2.342;2023-07-16T18:57:29;100954.25;;;16.15;87.42
53889;BME280;41337;51.400;-2.342;2023-07-16T19:02:30;100960.16;;;16.17;84.53
53889;BME280;41337;51.400;-2.342;2023-07-16T19:07:31;100963.88;;;16.22;80.26
53889;BME280;41337;51.400;-2.342;2023-07-16T19:12:32;100960.47;;;15.87;78.95
53889;BME280;41337;51.400;-2.342;2023-07-16T19:17:33;100961.44;;;15.73;76.35
53889;BME280;41337;51.400;-2.342;2023-07-16T19:22:34;100970.09;;;15.54;76.36
53889;BME280;41337;51.400;-2.342;2023-07-16T19:27:35;100971.81;;;15.40;77.62
53889;BME280;41337;51.400;-2.342;2023-07-16T19:32:36;100963.44;;;15.37;76.65
53889;BME280;41337;51.400;-2.342;2023-07-16T19:37:37;100974.97;;;15.23;75.69
53889;BME280;41337;51.400;-2.342;2023-07-16T19:42:40;100979.53;;;15.07;79.77
53889;BME280;41337;51.400;-2.342;2023-07-16T19:47:41;100988.63;;;14.98;79.21
53889;BME280;41337;51.400;-2.342;2023-07-16T19:52:42;100982.03;;;14.88;80.91
53889;BME280;41337;51.400;-2.342;2023-07-16T19:57:43;100996.66;;;14.84;81.90
53889;BME280;41337;51.400;-2.342;2023-07-16T20:02:44;100999.56;;;14.89;78.02
53889;BME280;41337;51.400;-2.342;2023-07-16T20:07:46;101001.53;;;14.80;79.28
53889;BME280;41337;51.400;-2.342;2023-07-16T20:12:47;101014.09;;;14.72;80.63
53889;BME280;41337;51.400;-2.342;2023-07-16T20:17:48;101003.41;;;14.65;79.88
53889;BME280;41337;51.400;-2.342;2023-07-16T20:22:49;101022.25;;;14.55;80.43
53889;BME280;41337;51.400;-2.342;2023-07-16T20:27:54;101020.75;;;14.46;80.49
53889;BME280;41337;51.400;-2.342;2023-07-16T20:32:55;101022.56;;;14.46;79.41
53889;BME280;41337;51.400;-2.342;2023-07-16T20:37:57;101020.72;;;14.32;81.81
53889;BME280;41337;51.400;-2.342;2023-07-16T20:42:58;101027.69;;;14.18;83.49
53889;BME280;41337;51.400;-2.342;2023-07-16T20:47:59;101024.31;;;14.09;83.13
53889;BME280;41337;51.400;-2.342;2023-07-16T20:53:00;101038.03;;;13.98;83.76
53889;BME280;41337;51.400;-2.342;2023-07-16T20:58:01;101040.69;;;13.98;83.77
53889;BME280;41337;51.400;-2.342;2023-07-16T21:03:04;101046.69;;;13.92;86.45
53889;BME280;41337;51.400;-2.342;2023-07-16T21:08:06;101052.34;;;13.89;85.18
53889;BME280;41337;51.400;-2.342;2023-07-16T21:13:07;101054.19;;;13.74;85.44
53889;BME280;41337;51.400;-2.342;2023-07-16T21:18:08;101050.59;;;13.67;85.69
53889;BME280;41337;51.400;-2.342;2023-07-16T21:23:08;101052.34;;;13.60;85.29
53889;BME280;41337;51.400;-2.342;2023-07-16T21:28:10;101061.09;;;13.60;85.18
53889;BME280;41337;51.400;-2.342;2023-07-16T21:33:10;101059.97;;;13.55;84.50
53889;BME280;41337;51.400;-2.342;2023-07-16T21:38:11;101066.91;;;13.56;83.02
53889;BME280;41337;51.400;-2.342;2023-07-16T21:43:12;101071.91;;;13.51;83.78
53889;BME280;41337;51.400;-2.342;2023-07-16T21:48:15;101077.88;;;13.53;84.07
53889;BME280;41337;51.400;-2.342;2023-07-16T21:53:16;101074.75;;;13.49;84.13
53889;BME280;41337;51.400;-2.342;2023-07-16T21:58:17;101079.56;;;13.46;84.28
53889;BME280;41337;51.400;-2.342;2023-07-16T22:03:18;101084.59;;;13.41;84.13
53889;BME280;41337;51.400;-2.342;2023-07-16T22:08:20;101085.59;;;13.40;84.35
53889;BME280;41337;51.400;-2.342;2023-07-16T22:13:21;101082.28;;;13.38;85.83
53889;BME280;41337;51.400;-2.342;2023-07-16T22:18:22;101085.28;;;13.35;85.32
53889;BME280;41337;51.400;-2.342;2023-07-16T22:23:24;101092.75;;;13.31;83.44
53889;BME280;41337;51.400;-2.342;2023-07-16T22:28:25;101092.47;;;13.26;83.81
53889;BME280;41337;51.400;-2.342;2023-07-16T22:33:26;101110.31;;;13.24;83.06
53889;BME280;41337;51.400;-2.342;2023-07-16T22:38:26;101098.97;;;13.15;84.54
53889;BME280;41337;51.400;-2.342;2023-07-16T22:43:27;101105.59;;;13.11;83.74
53889;BME280;41337;51.400;-2.342;2023-07-16T22:48:28;101109.94;;;13.04;84.38
53889;BME280;41337;51.400;-2.342;2023-07-16T22:53:29;101108.28;;;13.03;83.40
53889;BME280;41337;51.400;-2.342;2023-07-16T22:58:30;101113.16;;;12.92;84.30
53889;BME280;41337;51.400;-2.342;2023-07-16T23:03:30;101117.97;;;12.88;85.44
53889;BME280;41337;51.400;-2.342;2023-07-16T23:08:31;101119.31;;;12.84;84.88
53889;BME280;41337;51.400;-2.342;2023-07-16T23:13:32;101123.59;;;12.85;85.31
53889;BME280;41337;51.400;-2.342;2023-07-16T23:18:33;101120.19;;;12.76;84.68
53889;BME280;41337;51.400;-2.342;2023-07-16T23:23:34;101123.16;;;12.73;85.09
53889;BME280;41337;51.400;-2.342;2023-07-16T23:28:36;101116.91;;;12.66;85.13
53889;BME280;41337;51.400;-2.342;2023-07-16T23:33:37;101117.63;;;12.52;86.77
53889;BME280;41337;51.400;-2.342;2023-07-16T23:38:38;101126.63;;;12.43;86.80
53889;BME280;41337;51.400;-2.342;2023-07-16T23:43:39;101127.44;;;12.35;87.39
53889;BME280;41337;51.400;-2.342;2023-07-16T23:48:39;101133.09;;;12.24;87.82
53889;BME280;41337;51.400;-2.342;2023-07-16T23:53:40;101139.03;;;12.18;87.31
53889;BME280;41337;51.400;-2.342;2023-07-16T23:58:41;101136.63;;;12.09;88.98
